sensor_id;sensor_type;location;lat;lon;timestamp;pressure;altitude;pressure_sealevel;temperature;humidity
19843;BME280;10082;51.038;6.992;2022-10-31T00:00:09;112171.53;;;-144.33;100.00
19843;BME280;10082;51.038;6.992;2022-10-31T00:02:37;112171.53;;;-144.33;100.00
19843;BME280;10082;51.038;6.992;2022-10-31T00:05:06;112171.53;;;-144.33;100.00
19843;BME280;10082;51.038;6.992;2022-10-31T00:07:33;112171.53;;;-144.33;100.00
19843;BME280;10082;51.038;6.992;2022-10-31T00:10:01;112171.53;;;-144.33;100.00
19843;BME280;10082;51.038;6.992;2022-10-31T00:12:28;112171.53;;;-144.33;100.00
19843;BME280;10082;51.038;6.992;2022-10-31T00:14:54;112171.53;;;-144.33;100.00
19843;BME280;10082;51.038;6.992;2022-10-31T00:17:21;112171.53;;;-144.33;100.00
19843;BME280;10082;51.038;6.992;2022-10-31T00:19:48;112171.53;;;-144.33;100.00
19843;BME280;10082;51.038;6.992;2022-10-31T00:22:17;112171.53;;;-144.33;100.00
19843;BME280;10082;51.038;6.992;2022-10-31T00:24:44;112171.53;;;-144.33;100.00
19843;BME280;10082;51.038;6.992;2022-10-31T00:27:11;112171.53;;;-144.33;100.00
19843;BME280;10082;51.038;6.992;2022-10-31T00:29:38;112171.53;;;-144.33;100.00
19843;BME280;10082;51.038;6.992;2022-10-31T00:32:05;112171.53;;;-144.33;100.00
19843;BME280;10082;51.038;6.992;2022-10-31T00:34:32;112171.53;;;-144.33;100.00
19843;BME280;10082;51.038;6.992;2022-10-31T00:36:59;112171.53;;;-144.33;100.00
19843;BME280;10082;51.038;6.992;2022-10-31T00:39:28;112171.53;;;-144.33;100.00
19843;BME280;10082;51.038;6.992;2022-10-31T00:41:55;112171.53;;;-144.33;100.00
19843;BME280;10082;51.038;6.992;2022-10-31T00:44:22;112171.53;;;-144.33;100.00
19843;BME280;10082;51.038;6.992;2022-10-31T00:46:49;112171.53;;;-144.33;100.00
19843;BME280;10082;51.038;6.992;2022-10-31T00:49:20;112171.53;;;-144.33;100.00
19843;BME280;10082;51.038;6.992;2022-10-31T00:51:48;112171.53;;;-144.33;100.00
19843;BME280;10082;51.038;6.992;2022-10-31T00:54:15;112171.53;;;-144.33;100.00
19843;BME280;10082;51.038;6.992;2022-10-31T00:56:44;112171.53;;;-144.33;100.00
19843;BME280;10082;51.038;6.992;2022-10-31T00:59:12;112171.53;;;-144.33;100.00
19843;BME280;10082;51.038;6.992;2022-10-31T01:01:40;112171.53;;;-144.33;100.00
19843;BME280;10082;51.038;6.992;2022-10-31T01:04:07;112171.53;;;-144.33;100.00
19843;BME280;10082;51.038;6.992;2022-10-31T01:06:34;112171.53;;;-144.33;100.00
19843;BME280;10082;51.038;6.992;2022-10-31T01:09:01;112171.53;;;-144.33;100.00
19843;BME280;10082;51.038;6.992;2022-10-31T01:11:28;112171.53;;;-144.33;100.00
19843;BME280;10082;51.038;6.992;2022-10-31T01:13:57;112171.53;;;-144.33;100.00
19843;BME280;10082;51.038;6.992;2022-10-31T01:16:25;112171.53;;;-144.33;100.00
19843;BME280;10082;51.038;6.992;2022-10-31T01:18:56;112171.53;;;-144.33;100.00
19843;BME280;10082;51.038;6.992;2022-10-31T01:21:27;112171.53;;;-144.33;100.00
19843;BME280;10082;51.038;6.992;2022-10-31T01:23:58;112171.53;;;-144.33;100.00
19843;BME280;10082;51.038;6.992;2022-10-31T01:26:28;112171.53;;;-144.33;100.00
19843;BME280;10082;51.038;6.992;2022-10-31T01:29:00;112171.53;;;-144.33;100.00
19843;BME280;10082;51.038;6.992;2022-10-31T01:31:29;112171.53;;;-144.33;100.00
19843;BME280;10082;51.038;6.992;2022-10-31T01:33:58;112171.53;;;-144.33;100.00
19843;BME280;10082;51.038;6.992;2022-10-31T01:36:26;112171.53;;;-144.33;100.00
19843;BME280;10082;51.038;6.992;2022-10-31T01:38:57;112171.53;;;-144.33;100.00
19843;BME280;10082;51.038;6.992;2022-10-31T01:41:27;112171.53;;;-144.33;100.00
19843;BME280;10082;51.038;6.992;2022-10-31T01:43:55;112171.53;;;-144.33;100.00
19843;BME280;10082;51.038;6.992;2022-10-31T01:46:29;112171.53;;;-144.33;100.00
19843;BME280;10082;51.038;6.992;2022-10-31T01:48:59;112171.53;;;-144.33;100.00
19843;BME280;10082;51.038;6.992;2022-10-31T01:51:29;112171.53;;;-144.33;100.00
19843;BME280;10082;51.038;6.992;2022-10-31T01:54:02;112171.53;;;-144.33;100.00
19843;BME280;10082;51.038;6.992;2022-10-31T01:56:32;112171.53;;;-144.33;100.00
19843;BME280;10082;51.038;6.992;2022-10-31T01:59:01;112171.53;;;-144.33;100.00
19843;BME280;10082;51.038;6.992;2022-10-31T02:01:31;112171.53;;;-144.33;100.00
19843;BME280;10082;51.038;6.992;2022-10-31T02:03:58;112171.53;;;-144.33;100.00
19843;BME280;10082;51.038;6.992;2022-10-31T02:06:33;112171.53;;;-144.33;100.00
19843;BME280;10082;51.038;6.992;2022-10-31T02:09:05;112171.53;;;-144.33;100.00
19843;BME280;10082;51.038;6.992;2022-10-31T02:11:34;112171.53;;;-144.33;100.00
19843;BME280;10082;51.038;6.992;2022-10-31T02:14:03;112171.53;;;-144.33;100.00
19843;BME280;10082;51.038;6.992;2022-10-31T02:16:32;112171.53;;;-144.33;100.00
19843;BME280;10082;51.038;6.992;2022-10-31T02:18:59;112171.53;;;-144.33;100.00
19843;BME280;10082;51.038;6.992;2022-10-31T02:21:33;112171.53;;;-144.33;100.00
19843;BME280;10082;51.038;6.992;2022-10-31T02:24:21;112171.53;;;-144.33;100.00
19843;BME280;10082;51.038;6.992;2022-10-31T02:27:21;112171.53;;;-144.33;100.00
19843;BME280;10082;51.038;6.992;2022-10-31T02:30:07;112171.53;;;-144.33;100.00
19843;BME280;10082;51.038;6.992;2022-10-31T02:32:52;112171.53;;;-144.33;100.00
19843;BME280;10082;51.038;6.992;2022-10-31T02:35:31;112171.53;;;-144.33;100.00
19843;BME280;10082;51.038;6.992;2022-10-31T02:38:11;112171.53;;;-144.33;100.00
19843;BME280;10082;51.038;6.992;2022-10-31T02:40:49;112171.53;;;-144.33;100.00
19843;BME280;10082;51.038;6.992;2022-10-31T02:43:44;112171.53;;;-144.33;100.00
19843;BME280;10082;51.038;6.992;2022-10-31T02:46:24;112171.53;;;-144.33;100.00
19843;BME280;10082;51.038;6.992;2022-10-31T02:48:59;112171.53;;;-144.33;100.00
19843;BME280;10082;51.038;6.992;2022-10-31T02:51:28;112171.53;;;-144.33;100.00
19843;BME280;10082;51.038;6.992;2022-10-31T02:53:55;112171.53;;;-144.33;100.00
19843;BME280;10082;51.038;6.992;2022-10-31T02:56:22;112171.53;;;-144.33;100.00
19843;BME280;10082;51.038;6.992;2022-10-31T02:58:52;112171.53;;;-144.33;100.00
19843;BME280;10082;51.038;6.992;2022-10-31T03:01:32;112171.53;;;-144.33;100.00
19843;BME280;10082;51.038;6.992;2022-10-31T03:04:22;112171.53;;;-144.33;100.00
19843;BME280;10082;51.038;6.992;2022-10-31T03:06:56;112171.53;;;-144.33;100.00
19843;BME280;10082;51.038;6.992;2022-10-31T03:09:30;112171.53;;;-144.33;100.00
19843;BME280;10082;51.038;6.992;2022-10-31T03:12:04;112171.53;;;-144.33;100.00
19843;BME280;10082;51.038;6.992;2022-10-31T03:14:41;112171.53;;;-144.33;100.00
19843;BME280;10082;51.038;6.992;2022-10-31T03:17:14;112171.53;;;-144.33;100.00
19843;BME280;10082;51.038;6.992;2022-10-31T03:19:48;112171.53;;;-144.33;100.00
19843;BME280;10082;51.038;6.992;2022-10-31T03:22:20;112171.53;;;-144.33;100.00
19843;BME280;10082;51.038;6.992;2022-10-31T03:24:50;112171.53;;;-144.33;100.00
19843;BME280;10082;51.038;6.992;2022-10-31T03:27:22;112171.53;;;-144.33;100.00
19843;BME280;10082;51.038;6.992;2022-10-31T03:29:54;112171.53;;;-144.33;100.00
19843;BME280;10082;51.038;6.992;2022-10-31T03:32:25;112171.53;;;-144.33;100.00
19843;BME280;10082;51.038;6.992;2022-10-31T03:34:58;112171.53;;;-144.33;100.00
19843;BME280;10082;51.038;6.992;2022-10-31T03:37:27;112171.53;;;-144.33;100.00
19843;BME280;10082;51.038;6.992;2022-10-31T03:39:58;112171.53;;;-144.33;100.00
19843;BME280;10082;51.038;6.992;2022-10-31T03:42:29;112171.53;;;-144.33;100.00
19843;BME280;10082;51.038;6.992;2022-10-31T03:44:59;112171.53;;;-144.33;100.00
19843;BME280;10082;51.038;6.992;2022-10-31T03:47:29;112171.53;;;-144.33;100.00
19843;BME280;10082;51.038;6.992;2022-10-31T03:49:58;112171.53;;;-144.33;100.00
19843;BME280;10082;51.038;6.992;2022-10-31T03:52:27;112171.53;;;-144.33;100.00
19843;BME280;10082;51.038;6.992;2022-10-31T03:54:57;112171.53;;;-144.33;100.00
19843;BME280;10082;51.038;6.992;2022-10-31T03:57:32;112171.53;;;-144.33;100.00
19843;BME280;10082;51.038;6.992;2022-10-31T04:00:06;112171.53;;;-144.33;100.00
19843;BME280;10082;51.038;6.992;2022-10-31T04:02:45;112171.53;;;-144.33;100.00
19843;BME280;10082;51.038;6.992;2022-10-31T04:05:18;112171.53;;;-144.33;100.00
19843;BME280;10082;51.038;6.992;2022-10-31T04:07:48;112171.53;;;-144.33;100.00
19843;BME280;10082;51.038;6.992;2022-10-31T04:10:18;112171.53;;;-144.33;100.00
19843;BME280;10082;51.038;6.992;2022-10-31T04:12:51;112171.53;;;-144.33;100.00
19843;BME280;10082;51.038;6.992;2022-10-31T04:15:26;112171.53;;;-144.33;100.00
19843;BME280;10082;51.038;6.992;2022-10-31T04:17:57;112171.53;;;-144.33;100.00
19843;BME280;10082;51.038;6.992;2022-10-31T04:20:32;112171.53;;;-144.33;100.00
19843;BME280;10082;51.038;6.992;2022-10-31T04:23:00;112171.53;;;-144.33;100.00
19843;BME280;10082;51.038;6.992;2022-10-31T04:25:27;112171.53;;;-144.33;100.00
19843;BME280;10082;51.038;6.992;2022-10-31T04:27:54;112171.53;;;-144.33;100.00
19843;BME280;10082;51.038;6.992;2022-10-31T04:30:23;112171.53;;;-144.33;100.00
19843;BME280;10082;51.038;6.992;2022-10-31T04:32:50;112171.53;;;-144.33;100.00
19843;BME280;10082;51.038;6.992;2022-10-31T04:35:17;112171.53;;;-144.33;100.00
19843;BME280;10082;51.038;6.992;2022-10-31T04:37:46;112171.53;;;-144.33;100.00
19843;BME280;10082;51.038;6.992;2022-10-31T04:40:13;112171.53;;;-144.33;100.00
19843;BME280;10082;51.038;6.992;2022-10-31T04:42:59;112171.53;;;-144.33;100.00
19843;BME280;10082;51.038;6.992;2022-10-31T04:45:27;112171.53;;;-144.33;100.00
19843;BME280;10082;51.038;6.992;2022-10-31T04:47:54;112171.53;;;-144.33;100.00
19843;BME280;10082;51.038;6.992;2022-10-31T04:50:22;112171.53;;;-144.33;100.00
19843;BME280;10082;51.038;6.992;2022-10-31T04:52:51;112171.53;;;-144.33;100.00
19843;BME280;10082;51.038;6.992;2022-10-31T04:55:24;112171.53;;;-144.33;100.00
19843;BME280;10082;51.038;6.992;2022-10-31T04:58:20;112171.53;;;-144.33;100.00
19843;BME280;10082;51.038;6.992;2022-10-31T05:00:51;112171.53;;;-144.33;100.00
19843;BME280;10082;51.038;6.992;2022-10-31T05:03:23;112171.53;;;-144.33;100.00
19843;BME280;10082;51.038;6.992;2022-10-31T05:05:50;112171.53;;;-144.33;100.00
19843;BME280;10082;51.038;6.992;2022-10-31T05:08:18;112171.53;;;-144.33;100.00
19843;BME280;10082;51.038;6.992;2022-10-31T05:10:48;112171.53;;;-144.33;100.00
19843;BME280;10082;51.038;6.992;2022-10-31T05:13:15;112171.53;;;-144.33;100.00
19843;BME280;10082;51.038;6.992;2022-10-31T05:16:11;112171.53;;;-144.33;100.00
19843;BME280;10082;51.038;6.992;2022-10-31T05:18:56;112171.53;;;-144.33;100.00
19843;BME280;10082;51.038;6.992;2022-10-31T05:21:52;112171.53;;;-144.33;100.00
19843;BME280;10082;51.038;6.992;2022-10-31T05:24:22;112171.53;;;-144.33;100.00
19843;BME280;10082;51.038;6.992;2022-10-31T05:26:49;112171.53;;;-144.33;100.00
19843;BME280;10082;51.038;6.992;2022-10-31T05:29:16;112171.53;;;-144.33;100.00
19843;BME280;10082;51.038;6.992;2022-10-31T05:31:43;112171.53;;;-144.33;100.00
19843;BME280;10082;51.038;6.992;2022-10-31T05:34:23;112171.53;;;-144.33;100.00
19843;BME280;10082;51.038;6.992;2022-10-31T05:37:11;112171.53;;;-144.33;100.00
19843;BME280;10082;51.038;6.992;2022-10-31T05:39:40;112171.53;;;-144.33;100.00
19843;BME280;10082;51.038;6.992;2022-10-31T05:42:13;112171.53;;;-144.33;100.00
19843;BME280;10082;51.038;6.992;2022-10-31T05:44:41;112171.53;;;-144.33;100.00
19843;BME280;10082;51.038;6.992;2022-10-31T05:47:16;112171.53;;;-144.33;100.00
19843;BME280;10082;51.038;6.992;2022-10-31T05:50:15;112171.53;;;-144.33;100.00
19843;BME280;10082;51.038;6.992;2022-10-31T05:56:21;112171.53;;;-144.33;100.00
19843;BME280;10082;51.038;6.992;2022-10-31T05:58:48;112171.53;;;-144.33;100.00
19843;BME280;10082;51.038;6.992;2022-10-31T06:01:16;112171.53;;;-144.33;100.00
19843;BME280;10082;51.038;6.992;2022-10-31T06:03:44;112171.53;;;-144.33;100.00
19843;BME280;10082;51.038;6.992;2022-10-31T06:06:15;112171.53;;;-144.33;100.00
19843;BME280;10082;51.038;6.992;2022-10-31T06:08:42;112171.53;;;-144.33;100.00
19843;BME280;10082;51.038;6.992;2022-10-31T06:11:13;112171.53;;;-144.33;100.00
19843;BME280;10082;51.038;6.992;2022-10-31T06:14:00;112171.53;;;-144.33;100.00
19843;BME280;10082;51.038;6.992;2022-10-31T06:16:49;112171.53;;;-144.33;100.00
19843;BME280;10082;51.038;6.992;2022-10-31T06:19:36;112171.53;;;-144.33;100.00
19843;BME280;10082;51.038;6.992;2022-10-31T06:22:03;112171.53;;;-144.33;100.00
19843;BME280;10082;51.038;6.992;2022-10-31T06:24:32;112171.53;;;-144.33;100.00
19843;BME280;10082;51.038;6.992;2022-10-31T06:27:19;112171.53;;;-144.33;100.00
19843;BME280;10082;51.038;6.992;2022-10-31T06:29:48;112171.53;;;-144.33;100.00
19843;BME280;10082;51.038;6.992;2022-10-31T06:32:27;112171.53;;;-144.33;100.00
19843;BME280;10082;51.038;6.992;2022-10-31T06:34:54;112171.53;;;-144.33;100.00
19843;BME280;10082;51.038;6.992;2022-10-31T06:37:22;112171.53;;;-144.33;100.00
19843;BME280;10082;51.038;6.992;2022-10-31T06:39:50;112171.53;;;-144.33;100.00
19843;BME280;10082;51.038;6.992;2022-10-31T06:42:17;112171.53;;;-144.33;100.00
19843;BME280;10082;51.038;6.992;2022-10-31T06:44:45;112171.53;;;-144.33;100.00
19843;BME280;10082;51.038;6.992;2022-10-31T06:47:32;112171.53;;;-144.33;100.00
19843;BME280;10082;51.038;6.992;2022-10-31T06:50:08;112171.53;;;-144.33;100.00
19843;BME280;10082;51.038;6.992;2022-10-31T06:52:35;112171.53;;;-144.33;100.00
19843;BME280;10082;51.038;6.992;2022-10-31T06:55:04;112171.53;;;-144.33;100.00
19843;BME280;10082;51.038;6.992;2022-10-31T06:57:32;112171.53;;;-144.33;100.00
19843;BME280;10082;51.038;6.992;2022-10-31T06:59:59;112171.53;;;-144.33;100.00
19843;BME280;10082;51.038;6.992;2022-10-31T07:02:39;112171.53;;;-144.33;100.00
19843;BME280;10082;51.038;6.992;2022-10-31T07:05:06;112171.53;;;-144.33;100.00
19843;BME280;10082;51.038;6.992;2022-10-31T07:07:33;112171.53;;;-144.33;100.00
19843;BME280;10082;51.038;6.992;2022-10-31T07:10:02;112171.53;;;-144.33;100.00
19843;BME280;10082;51.038;6.992;2022-10-31T07:12:45;112171.53;;;-144.33;100.00
19843;BME280;10082;51.038;6.992;2022-10-31T07:15:13;112171.53;;;-144.33;100.00
19843;BME280;10082;51.038;6.992;2022-10-31T07:17:41;112171.53;;;-144.33;100.00
19843;BME280;10082;51.038;6.992;2022-10-31T07:20:09;112171.53;;;-144.33;100.00
19843;BME280;10082;51.038;6.992;2022-10-31T07:22:36;112171.53;;;-144.33;100.00
19843;BME280;10082;51.038;6.992;2022-10-31T07:25:07;112171.53;;;-144.33;100.00
19843;BME280;10082;51.038;6.992;2022-10-31T07:28:03;112171.53;;;-144.33;100.00
19843;BME280;10082;51.038;6.992;2022-10-31T07:30:30;112171.53;;;-144.33;100.00
19843;BME280;10082;51.038;6.992;2022-10-31T07:32:59;112171.53;;;-144.33;100.00
19843;BME280;10082;51.038;6.992;2022-10-31T07:35:46;112171.53;;;-144.33;100.00
19843;BME280;10082;51.038;6.992;2022-10-31T07:38:16;112171.53;;;-144.33;100.00
19843;BME280;10082;51.038;6.992;2022-10-31T07:40:43;112171.53;;;-144.33;100.00
19843;BME280;10082;51.038;6.992;2022-10-31T07:43:11;112171.53;;;-144.33;100.00
19843;BME280;10082;51.038;6.992;2022-10-31T07:45:56;112171.53;;;-144.33;100.00
19843;BME280;10082;51.038;6.992;2022-10-31T07:48:47;112171.53;;;-144.33;100.00
19843;BME280;10082;51.038;6.992;2022-10-31T07:51:33;112171.53;;;-144.33;100.00
19843;BME280;10082;51.038;6.992;2022-10-31T07:54:09;112171.53;;;-144.33;100.00
19843;BME280;10082;51.038;6.992;2022-10-31T07:56:37;112171.53;;;-144.33;100.00
19843;BME280;10082;51.038;6.992;2022-10-31T07:59:05;112171.53;;;-144.33;100.00
19843;BME280;10082;51.038;6.992;2022-10-31T08:01:33;112171.53;;;-144.33;100.00
19843;BME280;10082;51.038;6.992;2022-10-31T08:04:24;112171.53;;;-144.33;100.00
19843;BME280;10082;51.038;6.992;2022-10-31T08:07:10;112171.53;;;-144.33;100.00
19843;BME280;10082;51.038;6.992;2022-10-31T08:09:41;112171.53;;;-144.33;100.00
19843;BME280;10082;51.038;6.992;2022-10-31T08:12:17;112171.53;;;-144.33;100.00
19843;BME280;10082;51.038;6.992;2022-10-31T08:14:45;112171.53;;;-144.33;100.00
19843;BME280;10082;51.038;6.992;2022-10-31T08:17:14;112171.53;;;-144.33;100.00
19843;BME280;10082;51.038;6.992;2022-10-31T08:19:55;112171.53;;;-144.33;100.00
19843;BME280;10082;51.038;6.992;2022-10-31T08:22:33;112171.53;;;-144.33;100.00
19843;BME280;10082;51.038;6.992;2022-10-31T08:25:00;112171.53;;;-144.33;100.00
19843;BME280;10082;51.038;6.992;2022-10-31T08:27:28;112171.53;;;-144.33;100.00
19843;BME280;10082;51.038;6.992;2022-10-31T08:29:59;112171.53;;;-144.33;100.00
19843;BME280;10082;51.038;6.992;2022-10-31T08:32:26;112171.53;;;-144.33;100.00
19843;BME280;10082;51.038;6.992;2022-10-31T08:34:57;112171.53;;;-144.33;100.00
19843;BME280;10082;51.038;6.992;2022-10-31T08:37:39;112171.53;;;-144.33;100.00
19843;BME280;10082;51.038;6.992;2022-10-31T08:40:08;112171.53;;;-144.33;100.00
19843;BME280;10082;51.038;6.992;2022-10-31T08:42:36;112171.53;;;-144.33;100.00
19843;BME280;10082;51.038;6.992;2022-10-31T08:45:07;112171.53;;;-144.33;100.00
19843;BME280;10082;51.038;6.992;2022-10-31T08:47:34;112171.53;;;-144.33;100.00
19843;BME280;10082;51.038;6.992;2022-10-31T08:50:03;112171.53;;;-144.33;100.00
19843;BME280;10082;51.038;6.992;2022-10-31T08:52:31;112171.53;;;-144.33;100.00
19843;BME280;10082;51.038;6.992;2022-10-31T08:55:00;112171.53;;;-144.33;100.00
19843;BME280;10082;51.038;6.992;2022-10-31T08:57:46;112171.53;;;-144.33;100.00
19843;BME280;10082;51.038;6.992;2022-10-31T09:00:13;112171.53;;;-144.33;100.00
19843;BME280;10082;51.038;6.992;2022-10-31T09:03:01;112171.53;;;-144.33;100.00
19843;BME280;10082;51.038;6.992;2022-10-31T09:05:35;112171.53;;;-144.33;100.00
19843;BME280;10082;51.038;6.992;2022-10-31T09:08:04;112171.53;;;-144.33;100.00
19843;BME280;10082;51.038;6.992;2022-10-31T09:10:34;112171.53;;;-144.33;100.00
19843;BME280;10082;51.038;6.992;2022-10-31T09:13:04;112171.53;;;-144.33;100.00
19843;BME280;10082;51.038;6.992;2022-10-31T09:16:07;112171.53;;;-144.33;100.00
19843;BME280;10082;51.038;6.992;2022-10-31T09:18:34;112171.53;;;-144.33;100.00
19843;BME280;10082;51.038;6.992;2022-10-31T09:21:04;112171.53;;;-144.33;100.00
19843;BME280;10082;51.038;6.992;2022-10-31T09:23:31;112171.53;;;-144.33;100.00
19843;BME280;10082;51.038;6.992;2022-10-31T09:26:00;112171.53;;;-144.33;100.00
19843;BME280;10082;51.038;6.992;2022-10-31T09:28:35;112171.53;;;-144.33;100.00
19843;BME280;10082;51.038;6.992;2022-10-31T09:31:07;112171.53;;;-144.33;100.00
19843;BME280;10082;51.038;6.992;2022-10-31T09:33:53;112171.53;;;-144.33;100.00
19843;BME280;10082;51.038;6.992;2022-10-31T09:36:36;112171.53;;;-144.33;100.00
19843;BME280;10082;51.038;6.992;2022-10-31T09:39:07;112171.53;;;-144.33;100.00
19843;BME280;10082;51.038;6.992;2022-10-31T09:41:51;112171.53;;;-144.33;100.00
19843;BME280;10082;51.038;6.992;2022-10-31T09:44:28;112171.53;;;-144.33;100.00
19843;BME280;10082;51.038;6.992;2022-10-31T09:47:05;112171.53;;;-144.33;100.00
19843;BME280;10082;51.038;6.992;2022-10-31T09:49:56;112171.53;;;-144.33;100.00
19843;BME280;10082;51.038;6.992;2022-10-31T09:52:30;112171.53;;;-144.33;100.00
19843;BME280;10082;51.038;6.992;2022-10-31T09:55:06;112171.53;;;-144.33;100.00
19843;BME280;10082;51.038;6.992;2022-10-31T09:57:41;112171.53;;;-144.33;100.00
19843;BME280;10082;51.038;6.992;2022-10-31T10:00:15;112171.53;;;-144.33;100.00
19843;BME280;10082;51.038;6.992;2022-10-31T10:02:51;112171.53;;;-144.33;100.00
19843;BME280;10082;51.038;6.992;2022-10-31T10:05:24;112171.53;;;-144.33;100.00
19843;BME280;10082;51.038;6.992;2022-10-31T10:08:01;112171.53;;;-144.33;100.00
19843;BME280;10082;51.038;6.992;2022-10-31T10:10:51;112171.53;;;-144.33;100.00
19843;BME280;10082;51.038;6.992;2022-10-31T10:13:57;112171.53;;;-144.33;100.00
19843;BME280;10082;51.038;6.992;2022-10-31T10:16:36;112171.53;;;-144.33;100.00
19843;BME280;10082;51.038;6.992;2022-10-31T10:19:25;112171.53;;;-144.33;100.00
19843;BME280;10082;51.038;6.992;2022-10-31T10:22:02;112171.53;;;-144.33;100.00
19843;BME280;10082;51.038;6.992;2022-10-31T10:24:50;112171.53;;;-144.33;100.00
19843;BME280;10082;51.038;6.992;2022-10-31T10:27:24;112171.53;;;-144.33;100.00
19843;BME280;10082;51.038;6.992;2022-10-31T10:29:59;112171.53;;;-144.33;100.00
19843;BME280;10082;51.038;6.992;2022-10-31T10:32:29;112171.53;;;-144.33;100.00
19843;BME280;10082;51.038;6.992;2022-10-31T10:35:02;112171.53;;;-144.33;100.00
19843;BME280;10082;51.038;6.992;2022-10-31T10:37:37;112171.53;;;-144.33;100.00
19843;BME280;10082;51.038;6.992;2022-10-31T10:40:12;112171.53;;;-144.33;100.00
19843;BME280;10082;51.038;6.992;2022-10-31T10:42:41;112171.53;;;-144.33;100.00
19843;BME280;10082;51.038;6.992;2022-10-31T10:45:34;112171.53;;;-144.33;100.00
19843;BME280;10082;51.038;6.992;2022-10-31T10:48:28;112171.53;;;-144.33;100.00
19843;BME280;10082;51.038;6.992;2022-10-31T10:50:59;112171.53;;;-144.33;100.00
19843;BME280;10082;51.038;6.992;2022-10-31T10:53:42;112171.53;;;-144.33;100.00
19843;BME280;10082;51.038;6.992;2022-10-31T10:56:36;112171.53;;;-144.33;100.00
19843;BME280;10082;51.038;6.992;2022-10-31T10:59:10;112171.53;;;-144.33;100.00
19843;BME280;10082;51.038;6.992;2022-10-31T11:01:40;112171.53;;;-144.33;100.00
19843;BME280;10082;51.038;6.992;2022-10-31T11:04:27;112171.53;;;-144.33;100.00
19843;BME280;10082;51.038;6.992;2022-10-31T11:07:00;112171.53;;;-144.33;100.00
19843;BME280;10082;51.038;6.992;2022-10-31T11:09:31;112171.53;;;-144.33;100.00
19843;BME280;10082;51.038;6.992;2022-10-31T11:12:07;112171.53;;;-144.33;100.00
19843;BME280;10082;51.038;6.992;2022-10-31T11:14:42;112171.53;;;-144.33;100.00
19843;BME280;10082;51.038;6.992;2022-10-31T11:17:19;112171.53;;;-144.33;100.00
19843;BME280;10082;51.038;6.992;2022-10-31T11:19:47;112171.53;;;-144.33;100.00
19843;BME280;10082;51.038;6.992;2022-10-31T11:22:16;112171.53;;;-144.33;100.00
19843;BME280;10082;51.038;6.992;2022-10-31T11:24:44;112171.53;;;-144.33;100.00
19843;BME280;10082;51.038;6.992;2022-10-31T11:27:16;112171.53;;;-144.33;100.00
19843;BME280;10082;51.038;6.992;2022-10-31T11:29:43;112171.53;;;-144.33;100.00
19843;BME280;10082;51.038;6.992;2022-10-31T11:32:19;112171.53;;;-144.33;100.00
19843;BME280;10082;51.038;6.992;2022-10-31T11:34:49;112171.53;;;-144.33;100.00
19843;BME280;10082;51.038;6.992;2022-10-31T11:37:20;112171.53;;;-144.33;100.00
19843;BME280;10082;51.038;6.992;2022-10-31T11:39:51;112171.53;;;-144.33;100.00
19843;BME280;10082;51.038;6.992;2022-10-31T11:42:23;112171.53;;;-144.33;100.00
19843;BME280;10082;51.038;6.992;2022-10-31T11:44:53;112171.53;;;-144.33;99.51
19843;BME280;10082;51.038;6.992;2022-10-31T11:47:26;112171.53;;;-144.33;98.43
19843;BME280;10082;51.038;6.992;2022-10-31T11:49:56;112171.53;;;-144.33;97.73
19843;BME280;10082;51.038;6.992;2022-10-31T11:52:25;112171.53;;;-144.33;97.96
19843;BME280;10082;51.038;6.992;2022-10-31T11:54:55;112171.53;;;-144.33;98.70
19843;BME280;10082;51.038;6.992;2022-10-31T11:57:25;112171.53;;;-144.33;98.43
19843;BME280;10082;51.038;6.992;2022-10-31T11:59:54;112171.53;;;-144.33;98.66
19843;BME280;10082;51.038;6.992;2022-10-31T12:02:21;112171.53;;;-144.33;100.00
19843;BME280;10082;51.038;6.992;2022-10-31T12:04:54;112171.53;;;-144.33;99.48
19843;BME280;10082;51.038;6.992;2022-10-31T12:10:50;112171.53;;;-144.33;98.84
19843;BME280;10082;51.038;6.992;2022-10-31T12:13:31;112171.53;;;-144.33;98.34
19843;BME280;10082;51.038;6.992;2022-10-31T12:16:04;112171.53;;;-144.33;96.95
19843;BME280;10082;51.038;6.992;2022-10-31T12:18:49;112171.53;;;-144.33;96.35
19843;BME280;10082;51.038;6.992;2022-10-31T12:21:31;112171.53;;;-144.33;95.49
19843;BME280;10082;51.038;6.992;2022-10-31T12:24:11;112171.53;;;-144.33;90.79
19843;BME280;10082;51.038;6.992;2022-10-31T12:26:53;112171.53;;;-144.33;90.22
19843;BME280;10082;51.038;6.992;2022-10-31T12:29:39;112171.53;;;-144.33;88.97
19843;BME280;10082;51.038;6.992;2022-10-31T12:32:21;112171.53;;;-144.33;90.45
19843;BME280;10082;51.038;6.992;2022-10-31T12:35:18;112171.53;;;-144.33;90.37
19843;BME280;10082;51.038;6.992;2022-10-31T12:38:00;112171.53;;;-144.33;89.73
19843;BME280;10082;51.038;6.992;2022-10-31T12:40:46;112171.53;;;-144.33;89.61
19843;BME280;10082;51.038;6.992;2022-10-31T12:43:30;112171.53;;;-144.33;87.36
19843;BME280;10082;51.038;6.992;2022-10-31T12:46:06;112171.53;;;-144.33;89.32
19843;BME280;10082;51.038;6.992;2022-10-31T12:51:42;112171.53;;;-144.33;87.80
19843;BME280;10082;51.038;6.992;2022-10-31T12:54:33;112171.53;;;-144.33;86.73
19843;BME280;10082;51.038;6.992;2022-10-31T12:57:12;112171.53;;;-144.33;86.79
19843;BME280;10082;51.038;6.992;2022-10-31T12:59:42;112171.53;;;-144.33;87.60
19843;BME280;10082;51.038;6.992;2022-10-31T13:02:16;112171.53;;;-144.33;87.64